Latest Weather Observations for Julia Creek

IDQ60801

Issued at 10:31 pm EST Wednesday 2 September 2015 (issued every 30 minutes, with the page automatically refreshed every 10 minutes)

About weather observations | Map of weather stations | Latest weather observations for QLD | Other Formats
Station Details ID: 029058 Name: JULIA CREEK AIRPORT Lat: -20.67 Lon: 141.72 Height: 122.5 m
Data from the previous 72 hours. | See also: Recent months at Julia Creek
Date/Time
EST
Temp
°C
App
Temp
°C
Dew
Point
Rel
Hum
%
Delta-T
°C
Wind Press
QNH
hPa
Press
MSL
hPa
Rain
since 9 am
mm
Dir
 
Spd
km/h
Gust
km/h
Spd
kts
Gust
kts
02/10:30pm 24.5 19.0 2.0 23 10.8 SSW 20 28 11 15 1016.5 1015.9 0.0
02/10:00pm 25.1 19.9 2.5 23 10.9 S 19 24 10 13 1015.8 1015.2 0.0
02/09:30pm 25.4 20.6 2.8 23 11.0 S 17 24 9 13 1015.1 1014.5 0.0
02/09:00pm 26.6 21.0 3.2 22 11.6 SSW 22 26 12 14 1014.7 1014.1 0.0
02/08:30pm 27.4 21.0 3.2 21 12.1 SSW 26 37 14 20 1014.3 1013.7 0.0
02/08:03pm 28.7 22.1 4.2 21 12.5 SSW 28 50 15 27 1013.5 1013.0 0.0
02/08:00pm 28.6 22.3 3.5 20 12.7 SW 26 37 14 20 1013.5 1013.0 0.0
02/07:52pm 28.6 23.2 2.7 19 12.9 W 20 37 11 20 1013.2 1012.7 0.0
02/07:30pm 29.5 25.9 4.9 21 12.8 NNW 13 15 7 8 1012.1 1011.6 0.0
02/07:00pm 30.9 26.7 3.8 18 14.0 NNW 15 19 8 10 1011.7 1011.2 0.0
02/06:30pm 32.6 27.6 4.4 17 14.8 NNW 20 26 11 14 1011.5 1011.0 0.0
02/06:00pm 34.0 27.7 3.7 15 15.9 NNW 26 37 14 20 1011.3 1010.8 0.0
02/05:30pm 34.9 28.9 3.5 14 16.5 NW 24 33 13 18 1011.3 1010.8 0.0
02/05:00pm 35.3 28.0 2.7 13 16.9 NW 30 44 16 24 1011.2 1010.6 0.0
02/04:30pm 35.6 28.0 3.0 13 17.0 NW 32 48 17 26 1011.1 1010.5 0.0
02/04:00pm 36.3 28.8 3.5 13 17.4 NNW 32 44 17 24 1011.0 1010.4 0.0
02/03:33pm 35.7 28.7 1.9 12 17.4 NW 28 50 15 27 1011.0 1010.4 0.0
02/03:30pm 36.0 28.6 2.1 12 17.5 NW 30 43 16 23 1011.1 1010.5 0.0
02/03:00pm 36.3 28.2 1.2 11 17.9 NNW 33 46 18 25 1011.0 1010.4 0.0
02/02:37pm 36.0 28.5 0.9 11 17.8 N 30 52 16 28 1011.2 1010.6 0.0
02/02:30pm 35.8 27.7 0.8 11 17.7 N 33 46 18 25 1011.3 1010.8 0.0
02/02:00pm 35.7 27.7 1.9 12 17.4 NNW 33 50 18 27 1011.8 1011.3 0.0
02/01:30pm 34.9 26.5 1.3 12 17.0 NNW 35 48 19 26 1012.2 1011.7 0.0
02/01:00pm 35.1 26.3 -1.1 10 17.7 N 35 50 19 27 1012.6 1012.1 0.0
02/12:30pm 34.3 25.3 -3.1 9 17.6 N 35 50 19 27 1013.2 1012.7 0.0
02/12:00pm 33.5 24.8 -3.7 9 17.2 N 33 46 18 25 1013.8 1013.3 0.0
02/11:30am 32.9 24.1 -4.1 9 16.9 N 33 44 18 24 1014.4 1013.8 0.0
02/11:00am 32.1 23.4 -3.3 10 16.3 N 33 46 18 25 1014.9 1014.3 0.0
02/10:30am 30.9 22.7 -4.2 10 15.8 N 30 39 16 21 1015.7 1015.1 0.0
02/10:00am 30.2 23.2 -3.5 11 15.2 N 24 37 13 20 1016.2 1015.6 0.0
02/09:30am 28.4 22.7 -3.7 12 14.3 NNW 17 20 9 11 1015.9 1015.3 0.0
02/09:00am 26.2 20.4 -4.4 13 13.2 N 17 20 9 11 1015.9 1015.3 0.0
02/08:30am 24.7 19.8 -3.6 15 12.2 N 13 17 7 9 1015.9 1015.3 0.0
02/08:00am 21.3 16.7 -4.0 18 10.5 NNE 11 13 6 7 1015.6 1015.0 0.0
02/07:30am 18.3 13.6 -5.0 20 9.2 NNE 11 13 6 7 1015.2 1014.6 0.0
02/07:00am 15.4 11.3 -6.2 22 8.0 N 7 9 4 5 1014.9 1014.3 0.0
02/06:30am 16.4 12.1 -4.8 23 8.2 NNE 9 11 5 6 1014.4 1013.8 0.0
02/06:00am 15.4 11.0 -6.2 22 8.1 NE 9 11 5 6 1013.8 1013.3 0.0
02/05:30am 15.4 10.6 -6.2 22 8.1 NE 11 13 6 7 1013.5 1013.0 0.0
02/05:00am 16.0 12.0 -5.7 22 8.2 ENE 7 9 4 5 1013.3 1012.8 0.0
02/04:30am 15.4 11.1 -5.0 24 7.8 NE 9 15 5 8 1013.2 1012.7 0.0
02/04:00am 14.9 10.7 -7.8 20 8.1 NNE 7 9 4 5 1013.6 1013.1 0.0
02/03:30am 16.3 11.8 -6.7 20 8.6 N 9 20 5 11 1013.4 1012.9 0.0
02/03:00am 13.8 9.3 -12.3 15 8.3 ENE 7 9 4 5 1013.2 1012.7 0.0
02/02:30am 14.8 10.4 -10.0 17 8.5 ENE 7 9 4 5 1013.1 1012.6 0.0
02/02:00am 15.5 10.7 -10.2 16 8.8 E 9 11 5 6 1013.0 1012.5 0.0
02/01:30am 15.6 10.4 -10.1 16 8.8 ESE 11 13 6 7 1013.2 1012.7 0.0
02/01:00am 16.3 11.5 -10.3 15 9.2 E 9 11 5 6 1013.4 1012.9 0.0
02/12:30am 16.3 11.4 -11.2 14 9.3 ESE 9 9 5 5 1013.4 1012.9 0.0
02/12:00am 18.1 13.9 -8.1 16 9.7 SE 7 9 4 5 1013.4 1012.9 0.0
 
Date/Time
EST
Temp
°C
App
Temp
°C
Dew
Point
Rel
Hum
%
Delta-T
°C
Wind Press
QNH
hPa
Press
MSL
hPa
Rain
since 9 am
mm
Dir
 
Spd
km/h
Gust
km/h
Spd
kts
Gust
kts
01/11:30pm 20.0 16.2 -5.8 17 10.2 SSE 6 6 3 3 1013.3 1012.8 0.0
01/11:00pm 18.7 14.4 -8.4 15 10.0 SE 7 9 4 5 1013.2 1012.7 0.0
01/10:30pm 19.2 15.1 -8.9 14 10.3 SE 6 6 3 3 1013.3 1012.8 0.0
01/10:00pm 20.4 16.3 -7.1 15 10.6 SSW 7 7 4 4 1013.2 1012.7 0.0
01/09:30pm 20.7 16.7 -7.7 14 10.9 SW 6 6 3 3 1013.0 1012.5 0.0
01/09:00pm 21.3 17.0 -9.2 12 11.4 WSW 7 7 4 4 1012.7 1012.2 0.0
01/08:30pm 22.4 18.1 -8.4 12 11.9 WSW 7 9 4 5 1012.4 1011.9 0.0
01/08:00pm 24.3 20.7 -6.9 12 12.6 WSW 4 6 2 3 1012.1 1011.6 0.0
01/07:30pm 25.9 22.1 -5.6 12 13.2 W 6 7 3 4 1011.7 1011.2 0.0
01/07:00pm 28.3 25.7 -4.9 11 14.4 CALM 0 0 0 0 1011.3 1010.8 0.0
01/06:30pm 29.3 26.1 -6.8 9 15.3 W 2 7 1 4 1011.0 1010.4 0.0
01/06:00pm 31.9 28.5 -4.9 9 16.5 NW 4 6 2 3 1010.7 1010.1 0.0
01/05:30pm 32.6 28.9 -4.3 9 16.8 NW 6 13 3 7 1010.7 1010.1 0.0
01/05:00pm 33.0 30.5 -4.0 9 17.0 CALM 0 4 0 2 1010.7 1010.1 0.0
01/04:30pm 33.2 29.4 -3.9 9 17.1 NW 7 13 4 7 1010.7 1010.1 0.0
01/04:00pm 33.5 29.7 -3.7 9 17.2 N 7 13 4 7 1010.9 1010.3 0.0
01/03:30pm 32.5 28.6 -4.4 9 16.7 NNW 7 20 4 11 1011.2 1010.6 0.0
01/03:00pm 33.6 29.1 -3.6 9 17.3 WNW 11 19 6 10 1011.5 1011.0 0.0
01/02:30pm 33.2 29.6 -3.9 9 17.1 NNW 6 19 3 10 1012.1 1011.6 0.0
01/02:00pm 32.2 28.5 -4.6 9 16.6 NE 6 11 3 6 1012.6 1012.1 0.0
01/01:30pm 32.8 29.1 -4.2 9 16.9 N 6 15 3 8 1013.2 1012.7 0.0
01/01:00pm 31.4 26.3 -5.2 9 16.2 NNE 13 19 7 10 1013.7 1013.2 0.0
01/12:30pm 30.7 25.2 -5.8 9 15.9 E 15 20 8 11 1014.5 1013.9 0.0
01/12:00pm 29.6 24.9 -5.2 10 15.2 NE 11 20 6 11 1015.3 1014.7 0.0
01/11:30am 29.6 25.3 -5.2 10 15.2 ENE 9 22 5 12 1015.8 1015.2 0.0
01/11:00am 28.9 23.9 -4.5 11 14.7 ENE 13 20 7 11 1016.5 1015.9 0.0
01/10:30am 27.4 21.6 -4.5 12 13.9 E 17 24 9 13 1016.9 1016.3 0.0
01/10:00am 26.8 20.5 -3.9 13 13.4 ENE 20 28 11 15 1017.0 1016.4 0.0
01/09:30am 24.7 18.1 -3.6 15 12.2 E 22 30 12 16 1017.3 1017.0 0.0
01/09:00am 23.2 17.1 -4.0 16 11.5 E 19 24 10 13 1017.1 1016.8 0.0
01/08:30am 19.4 14.3 -4.8 19 9.7 ESE 13 17 7 9 1017.0 1016.7 0.0
01/08:00am 15.7 10.9 -6.5 21 8.2 ESE 11 15 6 8 1016.9 1016.6 0.0
01/07:30am 12.5 7.8 -8.6 22 7.2 E 9 9 5 5 1016.7 1016.4 0.0
01/07:00am 9.6 4.4 -10.5 23 6.3 ESE 11 13 6 7 1016.5 1016.2 0.0
01/06:30am 9.8 5.1 -9.8 24 6.3 SE 9 11 5 6 1016.1 1015.8 0.0
01/06:00am 10.1 4.9 -10.1 23 6.4 ESE 11 13 6 7 1015.8 1015.4 0.0
01/05:30am 10.6 5.1 -10.2 22 6.7 ESE 13 13 7 7 1015.5 1015.1 0.0
01/05:00am 11.8 6.3 -9.2 22 7.0 ESE 13 13 7 7 1015.4 1015.0 0.0
01/04:30am 12.0 6.6 -9.0 22 7.1 SSE 13 15 7 8 1015.6 1015.2 0.0
01/04:00am 12.6 7.9 -9.1 21 7.3 SE 9 15 5 8 1015.6 1015.2 0.0
01/03:30am 13.6 7.8 -8.3 21 7.6 SE 15 19 8 10 1015.6 1015.2 0.0
01/03:00am 13.4 7.9 -9.1 20 7.7 SE 13 17 7 9 1015.5 1015.1 0.0
01/02:30am 13.1 8.1 -8.7 21 7.5 SSE 11 13 6 7 1015.7 1015.3 0.0
01/02:00am 13.4 8.3 -9.7 19 7.8 SE 11 13 6 7 1015.9 1015.5 0.0
01/01:30am 13.9 8.1 -8.7 20 7.8 SE 15 17 8 9 1015.9 1015.5 0.0
01/01:00am 13.0 8.1 -11.4 17 7.9 SE 9 11 5 6 1016.2 1015.9 0.0
01/12:30am 13.6 8.4 -11.0 17 8.1 SE 11 13 6 7 1016.3 1016.0 0.0
01/12:00am 15.4 10.2 -10.3 16 8.8 SE 11 13 6 7 1016.5 1016.2 0.0
 
Date/Time
EST
Temp
°C
App
Temp
°C
Dew
Point
Rel
Hum
%
Delta-T
°C
Wind Press
QNH
hPa
Press
MSL
hPa
Rain
since 9 am
mm
Dir
 
Spd
km/h
Gust
km/h
Spd
kts
Gust
kts
31/11:30pm 16.1 10.6 -9.7 16 9.0 SSE 13 15 7 8 1016.4 1016.1 0.0
31/11:00pm 17.8 12.0 -9.1 15 9.7 SSE 15 17 8 9 1016.3 1016.0 0.0
31/10:30pm 17.4 11.9 -10.3 14 9.7 SSE 13 17 7 9 1016.3 1016.0 0.0
31/10:00pm 17.9 12.0 -9.9 14 9.9 SE 15 17 8 9 1016.0 1015.6 0.0
31/09:30pm 18.2 12.3 -10.6 13 10.1 SE 15 17 8 9 1015.9 1015.5 0.0
31/09:00pm 18.5 12.9 -10.4 13 10.2 SE 13 15 7 8 1015.7 1015.3 0.0
31/08:30pm 20.1 14.2 -10.2 12 11.0 SSE 15 15 8 8 1015.4 1015.0 0.0
31/08:00pm 20.9 15.0 -9.5 12 11.3 SSE 15 15 8 8 1015.1 1014.7 0.0
31/07:30pm 21.0 15.1 -10.5 11 11.5 S 15 15 8 8 1014.7 1014.3 0.0
31/07:00pm 22.9 17.4 -10.3 10 12.4 S 13 15 7 8 1014.5 1014.1 0.0
31/06:30pm 25.5 20.0 -9.7 9 13.7 S 13 13 7 7 1014.3 1013.9 0.0
31/06:00pm 28.4 23.1 -7.5 9 14.9 SSE 13 17 7 9 1014.2 1013.8 0.0
31/05:30pm 29.2 24.7 -6.9 9 15.3 SSE 9 15 5 8 1014.1 1013.7 0.0
31/05:00pm 29.6 24.4 -6.6 9 15.4 SSW 13 20 7 11 1014.0 1013.6 0.0
31/04:30pm 30.0 24.8 -6.3 9 15.6 SSW 13 20 7 11 1013.8 1013.5 0.0
31/04:00pm 29.9 25.4 -6.4 9 15.6 S 9 19 5 10 1013.7 1013.4 0.0
31/03:30pm 30.3 24.7 -6.1 9 15.8 SSE 15 24 8 13 1013.8 1013.5 0.0
31/03:00pm 29.9 23.9 -6.4 9 15.6 SSE 17 24 9 13 1014.4 1014.0 0.0
31/02:30pm 29.6 23.6 -6.6 9 15.4 S 17 30 9 16 1015.0 1014.6 0.0
31/02:00pm 29.3 23.8 -5.4 10 15.1 SSE 15 28 8 15 1015.6 1015.2 0.0
31/01:30pm 28.8 23.5 -3.4 12 14.4 SSE 15 24 8 13 1016.1 1015.8 0.0
31/01:00pm 28.1 24.1 -1.9 14 13.7 SSE 9 20 5 11 1016.4 1016.1 0.0
31/12:30pm 27.6 23.1 -3.3 13 13.7 SE 11 17 6 9 1017.0 1016.7 0.0
31/12:00pm 26.9 22.6 -1.9 15 13.0 SSE 11 24 6 13 1017.6 1017.3 0.0
31/11:30am 25.9 21.6 -1.8 16 12.5 SSE 11 20 6 11 1018.1 1017.8 0.0
31/11:00am 25.9 20.7 -0.2 18 12.1 ESE 17 26 9 14 1018.6 1018.3 0.0
31/10:30am 25.0 19.3 0.5 20 11.4 ESE 20 30 11 16 1019.0 1018.7 0.0
31/10:00am 23.6 17.9 0.7 22 10.6 E 20 28 11 15 1019.1 1018.8 0.0
31/09:30am 21.9 15.7 -0.1 23 9.9 E 22 30 12 16 1019.2 1018.9 0.0
31/09:00am 19.2 13.5 -0.7 26 8.6 ESE 19 24 10 13 1019.3 1019.0 0.0
31/08:30am 16.9 11.5 -1.7 28 7.8 SE 17 20 9 11 1019.5 1019.2 0.0
31/08:00am 15.0 9.8 -2.4 30 7.0 SSE 15 19 8 10 1019.4 1019.1 0.0
31/07:30am 12.1 7.2 -3.7 33 6.0 SSE 13 15 7 8 1018.7 1018.4 0.0
31/07:00am 9.5 4.8 -4.8 36 5.1 SSE 11 13 6 7 1018.2 1017.9 0.0
31/06:30am 10.3 6.0 -4.5 35 5.4 SE 9 13 5 7 1017.8 1017.5 0.0
31/06:00am 11.4 5.3 -4.3 33 5.8 SE 19 22 10 12 1017.2 1016.9 0.0
31/05:30am 11.8 6.8 -4.3 32 6.0 E 13 19 7 10 1017.0 1016.7 0.0
31/05:00am 12.5 7.5 -4.1 31 6.3 SE 13 17 7 9 1016.8 1016.5 0.0
31/04:30am 13.3 8.0 -3.4 31 6.5 SSE 15 19 8 10 1016.8 1016.5 0.0
31/04:00am 13.1 7.8 -3.6 31 6.4 SSE 15 19 8 10 1016.9 1016.6 0.0
31/03:30am 13.6 8.2 -4.1 29 6.8 SE 15 19 8 10 1017.1 1016.8 0.0
31/03:00am 13.8 8.8 -3.9 29 6.8 SE 13 17 7 9 1017.1 1016.8 0.0
31/02:30am 14.3 9.0 -3.9 28 7.1 SSE 15 19 8 10 1017.2 1016.9 0.0
31/02:00am 14.9 9.2 -3.9 27 7.3 SSE 17 20 9 11 1017.3 1017.0 0.0
31/01:30am 14.0 8.5 -5.2 26 7.2 SE 15 17 8 9 1017.6 1017.3 0.0
31/01:00am 14.6 9.1 -5.2 25 7.5 SE 15 19 8 10 1017.9 1017.6 0.0
31/12:30am 15.7 10.3 -4.2 25 7.8 SE 15 19 8 10 1017.9 1017.6 0.0
31/12:00am 15.6 10.5 -4.9 24 7.9 SSE 13 15 7 8 1018.0 1017.7 0.0
 
Date/Time
EST
Temp
°C
App
Temp
°C
Dew
Point
Rel
Hum
%
Delta-T
°C
Wind Press
QNH
hPa
Press
MSL
hPa
Rain
since 9 am
mm
Dir
 
Spd
km/h
Gust
km/h
Spd
kts
Gust
kts
30/11:30pm 15.9 10.4 -5.2 23 8.1 SE 15 17 8 9 1018.1 1017.8 0.0
30/11:00pm 16.1 11.1 -4.4 24 8.0 SSE 13 15 7 8 1018.0 1017.7 0.0

Other Formats:

Comma delimited format used in spreadsheet applications
http://www.bom.gov.au/fwo/IDQ60801/IDQ60801.94337.axf

JavaScript Object Notation format (JSON) in row-major order
http://www.bom.gov.au/fwo/IDQ60801/IDQ60801.94337.json